• Join FlightAware (Why Join?)
  • Login
  • US Flag 
09:36AM EDT


 

Airport Tracker/Info


-or-


 

Live Flight TrackerFlight Track Log ✈ AAL832 ✈ 14-Aug-2013 ✈ KORD - KMIA

Flight Track Log - Related Links

Times and Time Zones

All times are in EDT time to prevent confusion due to time zone crossing. See the AAL832 flight status page for this flight to view local times or setup timezone preferences in your user account.

Time Position Orientation Groundspeed Altitude Reporting Facility
EDT Latitude Longitude Course Direction KTS MPH feet Rate Location/Type
05:23PM 41.9620 -87.8890 340° North 140 161  Level FlightAware
05:24PM 41.9460 -87.9090 223° Southwest 176 203 1,300 3,060 Climbing FlightAware
05:24PM 41.9380 -87.9150 209° Southwest 175 201 1,900 2,520 Climbing FlightAware
05:24PM 41.9320 -87.9160 187° South 181 208 2,100 1,740 Climbing FlightAware
05:24PM 41.9250 -87.9160 180° South 192 221 2,400 2,040 Climbing FlightAware
05:25PM 41.8980 -87.9150 178° South 224 258 3,300 1,980 Climbing FlightAware
05:25PM 41.8750 -87.9130 176° South 253 291 4,000 2,400 Climbing FlightAware
05:25PM 41.8490 -87.9110 177° South 269 310 5,000 3,060 Climbing FlightAware
05:26PM 41.8340 -87.9090 174° South 274 315 5,700 3,540 Climbing FlightAware
05:26PM 41.8080 -87.9060 175° South 277 319 6,900 3,300 Climbing FlightAware
05:26PM 41.7830 -87.8990 168° South 286 329 7,900 3,360 Climbing FlightAware
05:26PM 41.7620 -87.8890 160° South 288 331 9,000 3,360 Climbing FlightAware
05:27PM 41.7370 -87.8770 160° South 296 341 10,000 2,940 Climbing FlightAware
05:27PM 41.6900 -87.8540 160° South 309 356 11,700 2,580 Climbing FlightAware
05:28PM 41.6380 -87.8300 161° South 338 389 13,100 2,160 Climbing FlightAware
05:29PM 41.5890 -87.8060 160° South 364 419 14,200 2,640 Climbing FlightAware
05:29PM 41.5280 -87.7770 160° South 371 427 16,200 2,820 Climbing FlightAware
05:30PM 41.4750 -87.7510 160° South 380 437 17,500 2,400 Climbing FlightAware
05:30PM 41.4120 -87.7280 165° South 392 451 19,000 2,280 Climbing FlightAware
05:31PM 41.3440 -87.7250 178° South 407 468 20,300 2,160 Climbing FlightAware
05:32PM 41.2780 -87.7250 180° South 416 479 21,600 2,160 Climbing FlightAware
05:32PM 41.2170 -87.7260 181° South 424 488 22,700 1,920 Climbing FlightAware
05:33PM 41.1440 -87.7180 175° South 438 504 23,800 1,800 Climbing FlightAware
05:33PM 41.0720 -87.7080 174° South 446 513 24,900 1,800 Climbing FlightAware
05:34PM 41.0050 -87.6990 174° South 452 520 25,900 1,680 Climbing FlightAware
05:34PM 40.9240 -87.6880 174° South 463 533 26,900 1,500 Climbing FlightAware
05:35PM 40.8510 -87.6780 174° South 472 543 27,700 900 Climbing FlightAware
05:36PM 40.7710 -87.6680 175° South 478 550 28,000 780 Climbing FlightAware
05:36PM 40.6970 -87.6480 168° South 483 556 28,600 840 Climbing FlightAware
05:37PM 40.6200 -87.6090 159° South 491 565 29,000 960 Climbing FlightAware
05:37PM 40.5530 -87.5730 158° South 497 572 29,700 1,080 Climbing FlightAware
05:38PM 40.4740 -87.5310 158° South 508 585 30,300 960 Climbing FlightAware
05:38PM 40.3960 -87.4900 158° South 517 595 30,900 1,140 Climbing FlightAware
05:39PM 40.3210 -87.4500 158° South 520 598 31,600 1,560 Climbing FlightAware
05:40PM 40.2370 -87.4060 158° South 516 594 32,800 1,860 Climbing FlightAware
05:40PM 40.1680 -87.3700 158° South 508 585 33,800 1,680 Climbing FlightAware
05:41PM 40.0880 -87.3280 158° South 502 578 34,800 1,560 Climbing FlightAware
05:42PM 39.9950 -87.2790 158° South 495 570 35,900 1,380 Climbing FlightAware
05:42PM 39.9240 -87.2420 158° South 490 564 36,600 1,320 Climbing FlightAware
05:43PM 39.8490 -87.2030 158° South 487 560 37,400 1,320 Climbing FlightAware
05:43PM 39.7780 -87.1670 159° South 480 552 38,200 1,260 Climbing FlightAware
05:44PM 39.7080 -87.1310 158° South 471 542 38,900 660 Climbing FlightAware
05:44PM 39.6320 -87.0910 158° South 477 549 39,000 60 Climbing FlightAware
05:45PM 39.5650 -87.0570 159° South 480 552 39,000  Level FlightAware
05:46PM 39.4940 -87.0210 159° South 479 551 39,000  Level FlightAware
05:46PM 39.4190 -86.9830 159° South 478 550 39,000  Level FlightAware
05:47PM 39.3530 -86.9490 158° South 476 548 39,000  Level FlightAware
05:47PM 39.2780 -86.9100 158° South 475 547 39,000  Level FlightAware
05:48PM 39.2050 -86.8730 159° South 474 545 39,000  Level FlightAware
05:49PM 39.1320 -86.8290 155° Southeast 479 551 39,000  Level FlightAware
05:49PM 39.0670 -86.7850 152° Southeast 478 550 39,000  Level FlightAware
05:50PM 38.9950 -86.7360 152° Southeast 477 549 39,000  Level FlightAware
05:50PM 38.9250 -86.6890 152° Southeast 475 547 39,000  Level FlightAware
05:51PM 38.8580 -86.6430 152° Southeast 475 547 39,000  Level FlightAware
05:51PM 38.7930 -86.6000 153° Southeast 475 547 39,000  Level FlightAware
05:52PM 38.7210 -86.5520 153° Southeast 475 547 39,000  Level FlightAware
05:53PM 38.6560 -86.5080 152° Southeast 475 547 39,000  Level FlightAware
05:53PM 38.5850 -86.4610 153° Southeast 475 547 39,000  Level FlightAware
05:54PM 38.5150 -86.4140 152° Southeast 475 547 39,000  Level FlightAware
05:54PM 38.4440 -86.3670 153° Southeast 474 545 39,000  Level FlightAware
05:55PM 38.3840 -86.3260 152° Southeast 472 543 39,000  Level FlightAware
05:56PM 38.3090 -86.2770 153° Southeast 471 542 39,000  Level FlightAware
05:56PM 38.2400 -86.2310 152° Southeast 470 541 39,000  Level FlightAware
05:57PM 38.1810 -86.1920 153° Southeast 470 541 39,000  Level FlightAware
05:57PM 38.1080 -86.1440 153° Southeast 469 540 39,000  Level FlightAware
05:58PM 38.0390 -86.0990 153° Southeast 468 539 39,000  Level FlightAware
05:58PM 37.9790 -86.0590 152° Southeast 468 539 39,000  Level FlightAware
05:59PM 37.9090 -86.0140 153° Southeast 468 539 39,000  Level FlightAware
06:00PM 37.8350 -85.9650 152° Southeast 466 536 39,000  Level FlightAware
06:00PM 37.7720 -85.9240 153° Southeast 466 536 39,000  Level FlightAware
06:01PM 37.7070 -85.8820 153° Southeast 465 535 39,000  Level FlightAware
06:01PM 37.6380 -85.8370 153° Southeast 464 534 39,000  Level FlightAware
06:02PM 37.6227 -85.8269 152° Southeast 465 535 39,000  Level FlightAware ADS-B
06:02PM 37.5641 -85.7890 153° Southeast 465 535 39,000  Level FlightAware ADS-B
06:03PM 37.4899 -85.7409 153° Southeast 463 533 39,000  Level FlightAware ADS-B
06:03PM 37.4316 -85.7034 153° Southeast 461 531 39,000  Level FlightAware ADS-B
06:04PM 37.3575 -85.6557 153° Southeast 460 529 39,000  Level FlightAware ADS-B
06:04PM 37.3008 -85.6192 153° Southeast 460 529 39,000  Level FlightAware ADS-B
06:05PM 37.2409 -85.5807 153° Southeast 460 529 39,000  Level FlightAware ADS-B
06:05PM 37.1818 -85.5429 153° Southeast 459 528 39,000  Level FlightAware ADS-B
06:06PM 37.0957 -85.4882 153° Southeast 460 529 39,000  Level FlightAware ADS-B
06:07PM 37.0367 -85.4504 153° Southeast 462 532 39,000  Level FlightAware ADS-B
06:07PM 36.9740 -85.4102 153° Southeast 462 532 39,000  Level FlightAware ADS-B
06:08PM 36.8890 -85.3563 153° Southeast 462 532 39,000  Level FlightAware ADS-B
06:09PM 36.8206 -85.3127 153° Southeast 463 533 39,000  Level FlightAware ADS-B
06:09PM 36.7615 -85.2751 153° Southeast 469 540 39,000  Level FlightAware ADS-B
06:10PM 36.6969 -85.2343 153° Southeast 471 542 39,000  Level FlightAware ADS-B
06:10PM 36.6483 -85.2038 153° Southeast 470 541 39,000  Level FlightAware ADS-B
06:11PM 36.5800 -85.1740 161° South 461 531 39,000  Level FlightAware
06:11PM 36.5206 -85.1578 168° South 458 527 39,000  Level FlightAware ADS-B
06:12PM 36.4540 -85.1407 168° South 457 526 39,000  Level FlightAware ADS-B
06:12PM 36.3785 -85.1212 168° South 457 526 39,000  Level FlightAware ADS-B
06:13PM 36.3157 -85.1050 168° South 455 524 39,000  Level FlightAware ADS-B
06:13PM 36.2534 -85.0891 168° South 453 521 39,000  Level FlightAware ADS-B
06:14PM 36.1918 -85.0733 168° South 451 519 39,000  Level FlightAware ADS-B
06:14PM 36.1248 -85.0561 168° South 450 518 39,000  Level FlightAware ADS-B
06:15PM 36.0628 -85.0402 168° South 450 518 39,000  Level FlightAware ADS-B
06:15PM 36.0006 -85.0242 168° South 448 516 39,000  Level FlightAware ADS-B
06:16PM 35.9387 -85.0084 168° South 448 516 39,000  Level FlightAware ADS-B
06:16PM 35.8771 -84.9926 168° South 445 512 39,000  Level FlightAware ADS-B
06:17PM 35.8163 -84.9770 168° South 444 511 39,000  Level FlightAware ADS-B
06:17PM 35.7550 -84.9615 168° South 444 511 39,000  Level FlightAware ADS-B
06:18PM 35.6939 -84.9461 168° South 443 510 39,000  Level FlightAware ADS-B
06:18PM 35.6332 -84.9306 168° South 442 509 39,000  Level FlightAware ADS-B
06:19PM 35.5606 -84.9124 168° South 441 507 39,000  Level FlightAware ADS-B
06:19PM 35.4999 -84.8970 168° South 440 506 39,000  Level FlightAware ADS-B
06:20PM 35.4383 -84.8813 168° South 440 506 39,000  Level FlightAware ADS-B
06:20PM 35.3784 -84.8662 168° South 440 506 39,000  Level FlightAware ADS-B
06:21PM 35.3169 -84.8507 168° South 440 506 39,000  Level FlightAware ADS-B
06:22PM 35.2561 -84.8354 168° South 440 506 39,000  Level FlightAware ADS-B
06:22PM 35.1944 -84.8199 168° South 440 506 39,000  Level FlightAware ADS-B
06:23PM 35.1288 -84.8035 168° South 440 506 39,000  Level FlightAware ADS-B
06:23PM 35.0685 -84.7885 168° South 440 506 39,000  Level FlightAware ADS-B
06:24PM 35.0083 -84.7735 168° South 440 506 39,000  Level FlightAware ADS-B
06:24PM 34.9483 -84.7585 168° South 440 506 39,000  Level FlightAware ADS-B
06:25PM 34.8859 -84.7431 169° South 440 506 39,000  Level FlightAware ADS-B
06:25PM 34.8210 -84.7270 168° South 440 506 39,000  Level FlightAware
06:26PM 34.7400 -84.7070 169° South 441 507 39,000  Level FlightAware
06:26PM 34.6770 -84.6910 168° South 441 507 39,000  Level FlightAware
06:27PM 34.6090 -84.6740 168° South 442 509 39,000  Level FlightAware
06:27PM 34.5450 -84.6590 169° South 444 511 39,000  Level FlightAware
06:28PM 34.4700 -84.6400 168° South 444 511 39,000  Level FlightAware
06:29PM 34.3950 -84.6220 169° South 445 512 39,000  Level FlightAware
06:29PM 34.3230 -84.6040 168° South 446 513 39,000  Level FlightAware
06:30PM 34.2490 -84.5860 169° South 447 514 39,000  Level FlightAware
06:30PM 34.1830 -84.5700 169° South 448 516 39,000  Level FlightAware
06:31PM 34.1070 -84.5510 168° South 449 517 39,000  Level FlightAware
06:32PM 34.0330 -84.5330 169° South 449 517 39,000  Level FlightAware
06:32PM 33.9710 -84.5180 169° South 450 518 39,000  Level FlightAware
06:33PM 33.9000 -84.5010 169° South 450 518 39,000  Level FlightAware
06:33PM 33.8250 -84.4830 169° South 450 518 39,000  Level FlightAware
06:34PM 33.7500 -84.4640 168° South 449 517 39,000  Level FlightAware
06:34PM 33.7227 -84.4578 169° South 449 517 39,000  Level FlightAware ADS-B
06:35PM 33.6606 -84.4429 169° South 449 517 39,000  Level FlightAware ADS-B
06:36PM 33.5420 -84.3990 163° South 454 522 39,000  Level FlightAware
06:36PM 33.4750 -84.3710 161° South 453 521 39,000  Level FlightAware
06:37PM 33.4349 -84.3540 161° South 448 516 39,000  Level FlightAware ADS-B
06:37PM 33.4253 -84.3501 161° South 454 522 39,000  Level FlightAware ADS-B
06:37PM 33.3528 -84.3197 161° South 454 522 39,000  Level FlightAware ADS-B
06:38PM 33.2805 -84.2938 163° South 449 517 39,000  Level FlightAware ADS-B
06:39PM 33.1910 -84.2730 169° South 445 512 39,000  Level FlightAware
06:39PM 33.1200 -84.2570 169° South 445 512 39,000  Level FlightAware
06:40PM 33.0560 -84.2430 170° South 444 511 39,000  Level FlightAware
06:40PM 32.9820 -84.2260 169° South 443 510 39,000  Level FlightAware
06:41PM 32.9160 -84.2130 171° South 443 510 39,000  Level FlightAware
06:42PM 32.8350 -84.1950 169° South 443 510 39,000  Level FlightAware
06:42PM 32.7700 -84.1810 170° South 441 507 39,000  Level FlightAware
06:43PM 32.6980 -84.1660 170° South 441 507 39,000  Level FlightAware
06:43PM 32.6380 -84.1540 170° South 441 507 39,000  Level FlightAware
06:44PM 32.5570 -84.1370 170° South 441 507 39,000  Level FlightAware
06:44PM 32.4840 -84.1230 171° South 446 513 39,000  Level FlightAware
06:45PM 32.4130 -84.1100 171° South 449 517 39,000  Level FlightAware
06:46PM 32.3420 -84.0990 173° South 446 513 39,000  Level FlightAware
06:46PM 32.2720 -84.0900 174° South 447 514 39,000  Level FlightAware
06:47PM 32.1960 -84.0810 174° South 450 518 39,000  Level FlightAware
06:47PM 32.1300 -84.0730 174° South 452 520 39,000  Level FlightAware
06:48PM 32.0660 -84.0650 174° South 452 520 39,000  Level FlightAware
06:49PM 32.0020 -84.0580 175° South 452 520 39,000  Level FlightAware
06:49PM 31.9370 -84.0490 173° South 452 520 39,000  Level FlightAware
06:50PM 31.8730 -84.0420 175° South 452 520 39,000  Level FlightAware
06:50PM 31.8100 -84.0340 174° South 452 520 39,000  Level FlightAware
06:51PM 31.7460 -84.0260 174° South 452 520 39,000  Level FlightAware
06:52PM 31.6820 -84.0180 174° South 452 520 39,000  Level FlightAware
06:52PM 31.5090 -83.9330 157° South 466 536 39,000  Level FlightAware
06:53PM 31.4440 -83.9100 163° South 466 536 39,000  Level FlightAware
06:53PM 31.3810 -83.8870 163° South 466 536 39,000  Level FlightAware
06:54PM 31.3180 -83.8640 163° South 466 536 39,000  Level FlightAware
06:55PM 31.2550 -83.8420 163° South 466 536 39,000  Level FlightAware
06:55PM 31.1910 -83.8190 163° South 466 536 39,000  Level FlightAware
06:56PM 31.1250 -83.7960 163° South 466 536 39,000  Level FlightAware
06:57PM 31.0620 -83.7730 163° South 466 536 39,000  Level FlightAware
06:57PM 30.9990 -83.7510 163° South 466 536 39,000  Level FlightAware
06:58PM 30.9180 -83.7220 163° South 466 536 39,000  Level FlightAware
06:59PM 30.7240 -83.6630 165° South 452 520 39,000  Level FlightAware
06:59PM 30.6610 -83.6410 163° South 452 520 39,000  Level FlightAware
07:00PM 30.5830 -83.6150 164° South 452 520 39,000  Level FlightAware
07:00PM 30.5200 -83.5940 164° South 453 521 39,000  Level FlightAware
07:01PM 30.4390 -83.5660 163° South 453 521 39,000  Level FlightAware
07:02PM 30.3750 -83.5440 163° South 454 522 39,000  Level FlightAware
07:02PM 30.3070 -83.5210 164° South 455 524 39,000  Level FlightAware
07:03PM 30.2230 -83.4920 163° South 455 524 39,000  Level FlightAware
07:03PM 30.1610 -83.4720 164° South 455 524 39,000  Level FlightAware
07:04PM 30.0790 -83.4440 164° South 453 521 39,000  Level FlightAware
07:05PM 29.9960 -83.4160 164° South 454 522 39,000  Level FlightAware
07:05PM 29.9250 -83.3920 164° South 455 524 39,000  Level FlightAware
07:06PM 29.8520 -83.3680 164° South 454 522 39,000  Level FlightAware
07:06PM 29.7810 -83.3440 164° South 452 520 39,000  Level FlightAware
07:07PM 29.7090 -83.3200 164° South 452 520 39,000  Level FlightAware
07:08PM 29.6380 -83.2960 164° South 452 520 39,000  Level FlightAware
07:08PM 29.5650 -83.2720 164° South 453 521 39,000  Level FlightAware
07:09PM 29.4940 -83.2480 164° South 455 524 39,000  Level FlightAware
07:09PM 29.4210 -83.2240 164° South 455 524 39,000  Level FlightAware
07:10PM 29.3490 -83.2000 164° South 455 524 39,000  Level FlightAware
07:10PM 29.2750 -83.1750 164° South 455 524 39,000  Level FlightAware
07:11PM 29.2050 -83.1520 164° South 454 522 39,000  Level FlightAware
07:12PM 29.1330 -83.1280 164° South 454 522 39,000  Level FlightAware
07:12PM 29.0590 -83.1040 164° South 452 520 39,000  Level FlightAware
07:13PM 28.9900 -83.0810 164° South 452 520 39,000  Level FlightAware
07:13PM 28.9280 -83.0610 164° South 451 519 39,000  Level FlightAware
07:14PM 28.8470 -83.0340 164° South 451 519 39,000  Level FlightAware
07:15PM 28.7740 -83.0100 164° South 452 520 39,000  Level FlightAware
07:15PM 28.7040 -82.9870 164° South 452 520 39,000  Level FlightAware
07:16PM 28.6320 -82.9630 164° South 450 518 39,000  Level FlightAware
07:16PM 28.5630 -82.9410 164° South 456 525 39,000  Level FlightAware
07:17PM 28.4900 -82.9170 164° South 454 522 39,000  Level FlightAware
07:17PM 28.4190 -82.8940 164° South 452 520 39,000  Level FlightAware
07:18PM 28.3480 -82.8710 164° South 450 518 39,000  Level FlightAware
07:19PM 28.2800 -82.8490 164° South 449 517 39,000  Level FlightAware
07:19PM 28.2080 -82.8250 164° South 448 516 39,000  Level FlightAware
07:20PM 28.1390 -82.8030 164° South 437 503 39,000  Level FlightAware
07:20PM 28.0700 -82.7800 164° South 435 501 39,000  Level FlightAware
07:21PM 28.0020 -82.7590 165° South 433 498 39,000  Level FlightAware
07:22PM 27.9330 -82.7350 163° South 441 507 39,000  Level FlightAware
07:22PM 27.8650 -82.7100 162° South 444 511 39,000  Level FlightAware
07:23PM 27.7980 -82.6850 162° South 441 507 39,000  Level FlightAware
07:23PM 27.7280 -82.6580 161° South 441 507 39,000  Level FlightAware
07:24PM 27.6610 -82.6330 162° South 440 506 39,000  Level FlightAware
07:24PM 27.5910 -82.6070 162° South 438 504 39,000 -480 Level FlightAware
07:25PM 27.5260 -82.5830 162° South 427 491 38,500 -960 Descending FlightAware
07:26PM 27.4600 -82.5580 161° South 424 488 37,900 -960 Descending FlightAware
07:26PM 27.4000 -82.5360 162° South 425 489 37,400 -780 Descending FlightAware
07:27PM 27.3170 -82.5050 162° South 435 501 37,000 -900 Descending FlightAware
07:27PM 27.2550 -82.4810 161° South 433 498 36,400 -1,020 Descending FlightAware
07:28PM 27.1930 -82.4590 162° South 435 501 35,900 -960 Descending FlightAware
07:28PM 27.1690 -82.4460 154° Southeast 444 511 35,700 -960 Descending FlightAware
07:28PM 27.1330 -82.4190 146° Southeast 459 528 35,400 -900 Descending FlightAware
07:29PM 27.0830 -82.3610 134° Southeast 466 536 34,900 -660 Descending FlightAware
07:30PM 27.0280 -82.2950 133° Southeast 468 539 34,600 -1,020 Descending FlightAware
07:30PM 26.9580 -82.2130 134° Southeast 471 542 33,500 -1,200 Descending FlightAware
07:31PM 26.8640 -82.1020 133° Southeast 480 552 32,500 -1,020 Descending FlightAware
07:32PM 26.8220 -82.0520 133° Southeast 481 554 32,100 -960 Descending FlightAware
07:33PM 26.7570 -81.9760 134° Southeast 477 549 31,400 -1,020 Descending FlightAware
07:33PM 26.7090 -81.9200 134° Southeast 478 550 30,900 -960 Descending FlightAware
07:34PM 26.6570 -81.8580 133° Southeast 476 548 30,400 -1,680 Descending FlightAware
07:34PM 26.5960 -81.7870 134° Southeast 470 541 28,900 -2,340 Descending FlightAware
07:35PM 26.5440 -81.7260 134° Southeast 456 525 27,500 -2,460 Descending FlightAware
07:35PM 26.4990 -81.6730 133° Southeast 447 514 26,200 -2,400 Descending FlightAware
07:36PM 26.4510 -81.6160 133° Southeast 423 487 24,900 -2,160 Descending FlightAware
07:37PM 26.4020 -81.5490 129° Southeast 412 474 23,500 -2,160 Descending FlightAware
07:37PM 26.3720 -81.4970 123° Southeast 404 465 22,400 -2,220 Descending FlightAware
07:38PM 26.3360 -81.4340 123° Southeast 401 461 21,100 -2,460 Descending FlightAware
07:38PM 26.3010 -81.3730 123° Southeast 403 464 19,600 -2,520 Descending FlightAware
07:39PM 26.2620 -81.3010 121° Southeast 395 455 18,000 -2,340 Descending FlightAware
07:40PM 26.2250 -81.2320 121° Southeast 386 444 16,500 -2,340 Descending FlightAware
07:40PM 26.1920 -81.1730 122° Southeast 381 438 15,100 -2,280 Descending FlightAware
07:41PM 26.1440 -81.1330 143° Southeast 363 418 13,900 -2,100 Descending FlightAware
07:41PM 26.0920 -81.1000 150° Southeast 359 413 12,700 -2,160 Descending FlightAware
07:42PM 26.0430 -81.0670 149° Southeast 354 407 11,400 -1,980 Descending FlightAware
07:43PM 25.9930 -81.0340 149° Southeast 341 392 10,400 -1,320 Descending FlightAware
07:43PM 25.9610 -81.0020 138° Southeast 315 362 10,000 -600 Descending FlightAware
07:43PM 25.9480 -80.9720 116° Southeast 300 345 9,900 -180 Descending FlightAware
07:44PM 25.9370 -80.9430 113° Southeast 289 333 9,900  Level FlightAware
07:44PM 25.9270 -80.9180 114° Southeast 290 334 9,900 -900 Level FlightAware
07:44PM 25.9150 -80.8900 115° Southeast 290 334 9,300 -1,620 Descending FlightAware
07:45PM 25.9020 -80.8550 112° Southeast 290 334 8,700 -1,500 Descending FlightAware
07:45PM 25.8930 -80.8270 110° East 285 328 8,200 -1,440 Descending FlightAware
07:46PM 25.8840 -80.8000 110° East 281 323 7,800 -1,200 Descending FlightAware
07:46PM 25.8760 -80.7730 108° East 280 322 7,400 -1,320 Descending FlightAware
07:46PM 25.8670 -80.7450 110° East 276 318 6,900 -1,380 Descending FlightAware
07:47PM 25.8540 -80.7060 110° East 273 314 6,300 -960 Descending FlightAware
07:47PM 25.8450 -80.6790 110° East 260 299 6,100 -420 Descending FlightAware
07:47PM 25.8370 -80.6540 110° East 248 285 6,000 -540 Descending FlightAware
07:48PM 25.8320 -80.6360 107° East 234 269 5,800 -1,140 Descending FlightAware
07:48PM 25.8250 -80.6160 111° Southeast 223 257 5,400 -1,380 Descending FlightAware
07:48PM 25.8180 -80.5930 109° East 220 253 4,900 -1,620 Descending FlightAware
07:49PM 25.8090 -80.5660 110° East 220 253 4,200 -1,500 Descending FlightAware
07:49PM 25.8020 -80.5450 110° East 215 247 3,800 -900 Descending FlightAware
07:49PM 25.7950 -80.5250 111° Southeast 202 232 3,600 -600 Descending FlightAware
07:50PM 25.7890 -80.5060 109° East 192 221 3,400 -840 Descending FlightAware
07:50PM 25.7820 -80.4840 109° East 183 211 3,000 -1,080 Descending FlightAware
07:50PM 25.7800 -80.4700 99° East 191 220 2,700 -1,200 Descending FlightAware
07:51PM 25.7800 -80.4500 90° East 188 216 2,300 -1,080 Descending FlightAware
07:51PM 25.7810 -80.4260 87° East 183 211 1,900 -960 Descending FlightAware
07:51PM 25.7820 -80.4080 86° East 181 208 1,600 -960 Descending FlightAware
07:52PM 25.7830 -80.3850 87° East 168 193 1,200 -840 Descending FlightAware
07:53PM 25.7840 -80.3540 88° East 145 167 700 -840 Descending FlightAware
07:53PM 25.7850 -80.3390 86° East 146 168 400 -420 Descending FlightAware
07:53PM 25.7850 -80.3210 90° East 146 168 400 -300 Level FlightAware
07:54PM 25.7860 -80.2990 87° East 144 166 100 -600 Descending FlightAware